createdAt,value
2018-09-27T00:00:03.499Z,16.10
2018-09-27T00:02:31.553Z,16.10
2018-09-27T00:04:59.626Z,16.10
2018-09-27T00:07:27.707Z,16.10
2018-09-27T00:09:55.787Z,16.00
2018-09-27T00:12:23.854Z,16.00
2018-09-27T00:14:51.926Z,16.00
2018-09-27T00:17:19.994Z,16.00
2018-09-27T00:19:48.075Z,16.00
2018-09-27T00:22:16.162Z,16.00
2018-09-27T00:24:44.242Z,16.00
2018-09-27T00:27:12.355Z,16.00
2018-09-27T00:29:40.414Z,16.00
2018-09-27T00:32:08.507Z,16.00
2018-09-27T00:34:36.571Z,16.00
2018-09-27T00:37:04.636Z,16.00
2018-09-27T00:39:32.696Z,16.00
2018-09-27T00:42:00.764Z,16.00
2018-09-27T00:44:28.923Z,16.00
2018-09-27T00:46:57.346Z,15.90
2018-09-27T00:49:25.496Z,15.90
2018-09-27T00:51:53.567Z,15.90
2018-09-27T00:54:21.637Z,15.90
2018-09-27T00:56:49.794Z,15.90
2018-09-27T00:59:17.872Z,15.90
2018-09-27T01:01:45.947Z,15.90
2018-09-27T01:04:14.020Z,15.90
2018-09-27T01:06:42.083Z,15.90
2018-09-27T01:09:10.931Z,15.80
2018-09-27T01:11:39.210Z,15.80
2018-09-27T01:14:07.302Z,15.80
2018-09-27T01:16:35.362Z,15.80
2018-09-27T01:19:03.584Z,15.80
2018-09-27T01:21:31.654Z,15.80
2018-09-27T01:23:59.735Z,15.80
2018-09-27T01:26:27.778Z,15.80
2018-09-27T01:28:55.846Z,15.70
2018-09-27T01:31:23.929Z,15.70
2018-09-27T01:33:52.014Z,15.70
2018-09-27T01:36:20.138Z,15.70
2018-09-27T01:38:48.211Z,15.70
2018-09-27T01:41:16.321Z,15.70
2018-09-27T01:43:44.378Z,15.70
2018-09-27T01:46:12.459Z,15.70
2018-09-27T01:48:40.523Z,15.70
2018-09-27T01:51:08.594Z,15.70
2018-09-27T01:53:36.662Z,15.70
2018-09-27T01:56:04.730Z,15.70
2018-09-27T01:58:32.800Z,15.60
2018-09-27T02:01:00.879Z,15.70
2018-09-27T02:03:28.944Z,15.70
2018-09-27T02:05:57.026Z,15.60
2018-09-27T02:08:25.170Z,15.60
2018-09-27T02:10:53.262Z,15.60
2018-09-27T02:13:21.354Z,15.60
2018-09-27T02:15:49.575Z,15.60
2018-09-27T02:18:17.630Z,15.60
2018-09-27T02:20:45.719Z,15.60
2018-09-27T02:23:13.806Z,15.60
2018-09-27T02:25:41.958Z,15.60
2018-09-27T02:28:10.050Z,15.60
2018-09-27T02:30:38.123Z,15.60
2018-09-27T02:33:06.186Z,15.50
2018-09-27T02:35:34.285Z,15.50
2018-09-27T02:38:02.424Z,15.50
2018-09-27T02:40:30.505Z,15.50
2018-09-27T02:42:58.579Z,15.50
2018-09-27T02:45:26.651Z,15.50
2018-09-27T02:47:54.799Z,15.50
2018-09-27T02:50:22.870Z,15.40
2018-09-27T02:52:50.926Z,15.40
2018-09-27T02:55:18.993Z,15.40
2018-09-27T02:57:47.070Z,15.40
2018-09-27T03:00:15.143Z,15.40
2018-09-27T03:02:43.206Z,15.40
2018-09-27T03:05:11.275Z,15.30
2018-09-27T03:07:39.343Z,15.20
2018-09-27T03:10:07.429Z,15.20
2018-09-27T03:12:35.486Z,15.20
2018-09-27T03:15:03.579Z,15.20
2018-09-27T03:17:31.642Z,15.20
2018-09-27T03:19:59.706Z,15.20
2018-09-27T03:22:27.782Z,15.20
2018-09-27T03:24:55.855Z,15.20
2018-09-27T03:27:23.963Z,15.20
2018-09-27T03:29:52.038Z,15.20
2018-09-27T03:32:20.114Z,15.20
2018-09-27T03:34:48.183Z,15.20
2018-09-27T03:37:16.258Z,15.20
2018-09-27T03:39:44.408Z,15.20
2018-09-27T03:42:12.443Z,15.20
2018-09-27T03:44:40.518Z,15.20
2018-09-27T03:47:08.592Z,15.20
2018-09-27T03:49:36.658Z,15.20
2018-09-27T03:52:04.741Z,15.20
2018-09-27T03:54:32.825Z,15.20
2018-09-27T03:57:00.907Z,15.20
2018-09-27T03:59:28.962Z,15.20
2018-09-27T04:01:57.025Z,15.20
2018-09-27T04:04:25.115Z,15.20
2018-09-27T04:06:53.262Z,15.20
2018-09-27T04:09:21.343Z,15.20
2018-09-27T04:11:49.416Z,15.20
2018-09-27T04:14:17.495Z,15.20
2018-09-27T04:16:45.591Z,15.20
2018-09-27T04:19:13.703Z,15.20
2018-09-27T04:21:41.782Z,15.10
2018-09-27T04:24:10.060Z,15.10
2018-09-27T04:26:37.974Z,15.10
2018-09-27T04:29:06.060Z,15.10
2018-09-27T04:31:34.123Z,15.10
2018-09-27T04:34:02.188Z,15.00
2018-09-27T04:36:30.250Z,15.00
2018-09-27T04:38:58.314Z,15.00
2018-09-27T04:41:26.398Z,14.90
2018-09-27T04:43:54.450Z,14.90
2018-09-27T04:46:22.515Z,14.90
2018-09-27T04:48:50.608Z,14.90
2018-09-27T04:51:18.666Z,14.90
2018-09-27T04:53:46.736Z,14.80
2018-09-27T04:56:14.830Z,14.60
2018-09-27T04:58:42.893Z,14.60
2018-09-27T05:01:10.973Z,14.70
2018-09-27T05:03:39.101Z,14.70
2018-09-27T05:06:07.350Z,14.70
2018-09-27T05:08:35.410Z,14.70
2018-09-27T05:11:03.725Z,14.70
2018-09-27T05:13:31.776Z,14.70
2018-09-27T05:15:59.915Z,14.70
2018-09-27T05:18:27.900Z,14.60
2018-09-27T05:20:55.975Z,14.60
2018-09-27T05:23:24.036Z,14.60
2018-09-27T05:25:52.109Z,14.50
2018-09-27T05:28:20.224Z,14.50
2018-09-27T05:30:48.290Z,14.50
2018-09-27T05:33:16.403Z,14.50
2018-09-27T05:35:44.508Z,14.40
2018-09-27T05:38:12.610Z,14.40
2018-09-27T05:40:40.683Z,14.40
2018-09-27T05:43:08.807Z,14.40
2018-09-27T05:45:37.163Z,14.40
2018-09-27T05:48:05.264Z,14.30
2018-09-27T05:50:33.324Z,14.30
2018-09-27T05:53:01.411Z,14.30
2018-09-27T05:55:29.482Z,14.30
2018-09-27T05:57:57.543Z,14.30
2018-09-27T06:00:25.620Z,14.30
2018-09-27T06:02:53.684Z,14.30
2018-09-27T06:05:21.756Z,14.20
2018-09-27T06:07:49.829Z,14.20
2018-09-27T06:10:17.901Z,14.20
2018-09-27T06:12:45.973Z,14.20
2018-09-27T06:15:14.044Z,14.20
2018-09-27T06:17:42.095Z,14.20
2018-09-27T06:20:10.192Z,14.20
2018-09-27T06:22:38.247Z,14.30
2018-09-27T06:25:06.318Z,14.20
2018-09-27T06:27:34.461Z,14.30
2018-09-27T06:30:02.459Z,14.30
2018-09-27T06:32:30.530Z,14.30
2018-09-27T06:34:58.644Z,14.30
2018-09-27T06:37:26.694Z,14.30
2018-09-27T06:39:54.749Z,14.30
2018-09-27T06:42:22.939Z,14.40
2018-09-27T06:44:51.005Z,14.40
2018-09-27T06:47:19.070Z,14.40
2018-09-27T06:49:47.138Z,14.40
2018-09-27T06:52:15.228Z,14.50
2018-09-27T06:54:43.377Z,14.50
2018-09-27T06:57:11.441Z,14.50
2018-09-27T06:59:39.571Z,14.60
2018-09-27T07:02:07.722Z,14.60
2018-09-27T07:04:35.795Z,14.70
2018-09-27T07:07:03.883Z,14.70
2018-09-27T07:09:31.991Z,14.70
2018-09-27T07:12:00.114Z,14.80
2018-09-27T07:14:28.213Z,14.90
2018-09-27T07:16:56.243Z,14.90
2018-09-27T07:19:24.314Z,15.00
2018-09-27T07:21:52.407Z,15.00
2018-09-27T07:24:20.466Z,15.10
2018-09-27T07:26:49.144Z,15.20
2018-09-27T07:29:17.047Z,15.20
2018-09-27T07:31:45.114Z,15.30
2018-09-27T07:34:13.215Z,15.40
2018-09-27T07:36:41.353Z,15.40
2018-09-27T07:39:10.866Z,15.50
2018-09-27T07:41:39.238Z,15.60
2018-09-27T07:44:07.367Z,15.70
2018-09-27T07:46:35.483Z,15.80
2018-09-27T07:49:03.575Z,15.90
2018-09-27T07:51:31.663Z,15.90
2018-09-27T07:53:59.738Z,16.00
2018-09-27T07:56:27.868Z,16.10
2018-09-27T07:58:55.983Z,16.20
2018-09-27T08:01:24.050Z,16.20
2018-09-27T08:03:52.131Z,16.30
2018-09-27T08:06:20.202Z,16.40
2018-09-27T08:08:48.421Z,16.50
2018-09-27T08:11:16.634Z,16.60
2018-09-27T08:13:44.668Z,16.60
2018-09-27T08:16:12.746Z,16.70
2018-09-27T08:18:40.819Z,16.80
2018-09-27T08:21:09.015Z,16.90
2018-09-27T08:23:36.978Z,16.90
2018-09-27T08:26:05.075Z,17.00
2018-09-27T08:28:33.138Z,17.10
2018-09-27T08:31:01.297Z,17.10
2018-09-27T08:33:29.350Z,17.20
2018-09-27T08:35:57.423Z,17.20
2018-09-27T08:38:25.596Z,17.30
2018-09-27T08:40:53.606Z,17.40
2018-09-27T08:43:21.673Z,17.50
2018-09-27T08:45:49.812Z,17.60
2018-09-27T08:48:17.871Z,17.70
2018-09-27T08:50:46.149Z,17.80
2018-09-27T08:53:14.322Z,17.80
2018-09-27T08:55:42.709Z,17.90
2018-09-27T08:58:10.745Z,18.00
2018-09-27T09:00:38.846Z,18.00
2018-09-27T09:03:06.943Z,18.10
2018-09-27T09:05:34.994Z,18.20
2018-09-27T09:08:03.250Z,18.30
2018-09-27T09:10:31.334Z,18.40
2018-09-27T09:12:59.488Z,18.50
2018-09-27T09:15:27.585Z,18.50
2018-09-27T09:17:55.635Z,18.60
2018-09-27T09:20:23.739Z,18.70
2018-09-27T09:22:51.850Z,18.70
2018-09-27T09:25:19.914Z,18.80
2018-09-27T09:27:47.987Z,18.90
2018-09-27T09:30:16.127Z,19.00
2018-09-27T09:32:44.217Z,19.00
2018-09-27T09:35:12.299Z,19.10
2018-09-27T09:37:40.382Z,19.20
2018-09-27T09:40:08.451Z,19.30
2018-09-27T09:42:36.527Z,19.30
2018-09-27T09:45:04.626Z,19.40
2018-09-27T09:47:32.770Z,19.50
2018-09-27T09:50:01.034Z,19.50
2018-09-27T09:52:29.063Z,19.60
2018-09-27T09:54:57.135Z,19.70
2018-09-27T09:57:25.310Z,19.70
2018-09-27T09:59:53.397Z,19.80
2018-09-27T10:02:21.511Z,19.80
2018-09-27T10:04:49.579Z,19.90
2018-09-27T10:07:17.706Z,20.00
2018-09-27T10:09:45.775Z,19.90
2018-09-27T10:12:13.840Z,20.00
2018-09-27T10:14:41.917Z,20.10
2018-09-27T10:17:09.986Z,20.20
2018-09-27T10:19:38.091Z,20.30
2018-09-27T10:22:06.287Z,20.40
2018-09-27T10:24:34.323Z,20.40
2018-09-27T10:27:02.395Z,20.50
2018-09-27T10:29:30.479Z,20.60
2018-09-27T10:31:58.634Z,20.70
2018-09-27T10:34:26.774Z,20.70
2018-09-27T10:36:54.889Z,20.80
2018-09-27T10:39:23.082Z,20.90
2018-09-27T10:41:51.143Z,20.90
2018-09-27T10:44:19.232Z,20.90
2018-09-27T10:46:47.330Z,21.00
2018-09-27T10:49:15.418Z,21.10
2018-09-27T10:51:43.536Z,21.10
2018-09-27T10:54:11.841Z,21.20
2018-09-27T10:56:39.917Z,21.20
2018-09-27T10:59:07.973Z,21.30
2018-09-27T11:01:36.067Z,21.40
2018-09-27T11:04:04.187Z,21.40
2018-09-27T11:06:32.242Z,21.50
2018-09-27T11:09:00.315Z,21.50
2018-09-27T11:11:28.493Z,21.60
2018-09-27T11:13:56.578Z,21.60
2018-09-27T11:16:24.800Z,21.70
2018-09-27T11:18:52.905Z,21.70
2018-09-27T11:21:20.982Z,21.80
2018-09-27T11:23:49.047Z,21.90
2018-09-27T11:26:17.131Z,21.90
2018-09-27T11:28:50.579Z,22.00
2018-09-27T11:31:24.035Z,22.00
2018-09-27T11:33:52.343Z,22.10
2018-09-27T11:36:20.495Z,22.10
2018-09-27T11:38:48.647Z,22.20
2018-09-27T11:41:16.743Z,22.30
2018-09-27T11:43:44.822Z,22.30
2018-09-27T11:46:12.886Z,22.40
2018-09-27T11:48:41.187Z,22.50
2018-09-27T11:51:09.290Z,22.50
2018-09-27T11:53:37.490Z,22.60
2018-09-27T11:56:05.618Z,22.60
2018-09-27T11:58:33.643Z,22.70
2018-09-27T12:01:01.721Z,22.70
2018-09-27T12:03:29.777Z,22.80
2018-09-27T12:05:57.900Z,22.80
2018-09-27T12:08:25.931Z,22.90
2018-09-27T12:10:53.995Z,22.90
2018-09-27T12:13:22.249Z,23.00
2018-09-27T12:15:50.278Z,23.10
2018-09-27T12:18:18.404Z,23.10
2018-09-27T12:20:46.495Z,23.20
2018-09-27T12:23:14.608Z,23.20
2018-09-27T12:25:42.736Z,23.30
2018-09-27T12:28:10.799Z,23.30
2018-09-27T12:30:38.883Z,23.30
2018-09-27T12:33:06.982Z,23.40
2018-09-27T12:35:35.115Z,23.50
2018-09-27T12:38:03.228Z,23.50
2018-09-27T12:40:31.346Z,23.60
2018-09-27T12:42:59.569Z,23.60
2018-09-27T12:45:27.755Z,23.70
2018-09-27T12:47:55.786Z,23.70
2018-09-27T12:50:23.840Z,23.80
2018-09-27T12:52:51.927Z,23.80
2018-09-27T12:55:19.977Z,23.80
2018-09-27T12:57:48.487Z,23.90
2018-09-27T13:00:16.572Z,24.00
2018-09-27T13:02:44.738Z,24.10
2018-09-27T13:05:12.710Z,24.20
2018-09-27T13:07:40.785Z,24.20
2018-09-27T13:10:08.917Z,24.30
2018-09-27T13:12:37.012Z,24.30
2018-09-27T13:15:05.213Z,24.40
2018-09-27T13:17:33.269Z,24.50
2018-09-27T13:20:01.435Z,24.50
2018-09-27T13:22:29.470Z,24.60
2018-09-27T13:24:57.754Z,24.70
2018-09-27T13:27:25.779Z,24.70
2018-09-27T13:29:53.907Z,24.80
2018-09-27T13:32:21.923Z,24.90
2018-09-27T13:34:50.012Z,25.00
2018-09-27T13:37:18.105Z,25.10
2018-09-27T13:39:46.227Z,25.20
2018-09-27T13:42:14.247Z,25.30
2018-09-27T13:44:42.306Z,25.40
2018-09-27T13:47:10.438Z,25.40
2018-09-27T13:49:38.513Z,25.30
2018-09-27T13:52:06.886Z,25.40
2018-09-27T13:54:34.946Z,25.40
2018-09-27T13:57:03.122Z,25.50
2018-09-27T13:59:31.131Z,25.60
2018-09-27T14:01:59.322Z,25.60
2018-09-27T14:04:27.401Z,25.70
2018-09-27T14:06:55.467Z,25.70
2018-09-27T14:09:23.555Z,25.80
2018-09-27T14:11:51.645Z,25.90
2018-09-27T14:14:19.733Z,26.00
2018-09-27T14:16:47.818Z,26.10
2018-09-27T14:19:15.867Z,26.20
2018-09-27T14:21:43.950Z,26.30
2018-09-27T14:24:12.051Z,26.40
2018-09-27T14:26:40.127Z,26.40
2018-09-27T14:29:08.322Z,26.50
2018-09-27T14:31:36.395Z,26.50
2018-09-27T14:34:04.534Z,26.50
2018-09-27T14:36:32.658Z,26.50
2018-09-27T14:39:00.703Z,26.50
2018-09-27T14:41:28.837Z,26.20
2018-09-27T14:43:56.883Z,26.20
2018-09-27T14:46:24.962Z,26.20
2018-09-27T14:48:53.035Z,26.20
2018-09-27T14:51:21.108Z,26.20
2018-09-27T14:53:49.204Z,26.20
2018-09-27T14:56:17.335Z,26.10
2018-09-27T14:58:45.458Z,26.00
2018-09-27T15:01:13.493Z,25.90
2018-09-27T15:03:41.583Z,25.90
2018-09-27T15:06:09.697Z,25.80
2018-09-27T15:08:37.883Z,25.80
2018-09-27T15:11:06.050Z,25.70
2018-09-27T15:13:34.132Z,25.70
2018-09-27T15:16:02.235Z,25.60
2018-09-27T15:18:30.360Z,25.50
2018-09-27T15:20:58.562Z,25.40
2018-09-27T15:23:26.704Z,25.40
2018-09-27T15:25:54.832Z,25.30
2018-09-27T15:28:22.903Z,25.20
2018-09-27T15:30:51.093Z,25.10
2018-09-27T15:33:19.151Z,24.90
2018-09-27T15:35:47.403Z,24.90
2018-09-27T15:38:15.490Z,24.80
2018-09-27T15:40:43.575Z,24.80
2018-09-27T15:43:15.671Z,24.70
2018-09-27T15:45:43.824Z,24.70
2018-09-27T15:48:11.876Z,24.60
2018-09-27T15:50:39.969Z,24.60
2018-09-27T15:53:08.027Z,24.50
2018-09-27T15:55:36.093Z,24.50
2018-09-27T15:58:04.283Z,24.40
2018-09-27T16:00:33.286Z,24.40
2018-09-27T16:03:01.398Z,24.30
2018-09-27T16:05:29.487Z,24.20
2018-09-27T16:07:57.584Z,24.20
2018-09-27T16:10:25.691Z,24.10
2018-09-27T16:12:53.796Z,24.00
2018-09-27T16:15:21.867Z,24.00
2018-09-27T16:17:49.959Z,23.90
2018-09-27T16:20:18.055Z,23.90
2018-09-27T16:22:46.298Z,23.80
2018-09-27T16:25:14.449Z,23.70
2018-09-27T16:27:42.551Z,23.70
2018-09-27T16:30:10.928Z,23.70
2018-09-27T16:32:39.013Z,23.60
2018-09-27T16:35:07.088Z,23.60
2018-09-27T16:37:35.156Z,23.50
2018-09-27T16:40:03.395Z,23.50
2018-09-27T16:42:31.474Z,23.50
2018-09-27T16:44:59.556Z,23.40
2018-09-27T16:47:27.698Z,23.30
2018-09-27T16:49:55.737Z,23.30
2018-09-27T16:52:23.827Z,23.20
2018-09-27T16:54:51.925Z,23.20
2018-09-27T16:57:20.008Z,23.10
2018-09-27T16:59:48.169Z,23.10
2018-09-27T17:02:16.253Z,23.00
2018-09-27T17:04:44.336Z,22.90
2018-09-27T17:07:12.406Z,22.90
2018-09-27T17:09:40.510Z,22.80
2018-09-27T17:12:08.608Z,22.80
2018-09-27T17:14:36.702Z,22.80
2018-09-27T17:17:04.795Z,22.70
2018-09-27T17:19:32.872Z,22.60
2018-09-27T17:22:01.657Z,22.60
2018-09-27T17:24:29.749Z,22.50
2018-09-27T17:26:57.820Z,22.50
2018-09-27T17:29:25.913Z,22.40
2018-09-27T17:31:54.119Z,22.30
2018-09-27T17:34:22.254Z,22.20
2018-09-27T17:36:50.335Z,22.20
2018-09-27T17:39:18.442Z,22.10
2018-09-27T17:41:46.623Z,22.00
2018-09-27T17:44:14.700Z,21.90
2018-09-27T17:46:42.878Z,21.80
2018-09-27T17:49:10.935Z,21.80
2018-09-27T17:51:39.063Z,21.70
2018-09-27T17:54:07.295Z,21.50
2018-09-27T17:56:35.406Z,21.40
2018-09-27T17:59:03.581Z,21.40
2018-09-27T18:01:31.636Z,21.30
2018-09-27T18:03:59.794Z,21.20
2018-09-27T18:06:27.979Z,21.20
2018-09-27T18:08:56.063Z,21.10
2018-09-27T18:11:24.239Z,21.00
2018-09-27T18:13:52.355Z,20.90
2018-09-27T18:16:20.545Z,20.90
2018-09-27T18:18:48.622Z,20.80
2018-09-27T18:21:16.726Z,20.70
2018-09-27T18:23:44.841Z,20.60
2018-09-27T18:26:13.070Z,20.60
2018-09-27T18:28:41.228Z,20.50
2018-09-27T18:31:09.331Z,20.40
2018-09-27T18:33:37.350Z,20.30
2018-09-27T18:36:05.445Z,20.20
2018-09-27T18:38:33.549Z,20.20
2018-09-27T18:41:01.662Z,20.10
2018-09-27T18:43:29.728Z,20.00
2018-09-27T18:45:57.828Z,19.70
2018-09-27T18:48:26.294Z,19.60
2018-09-27T18:50:54.382Z,19.60
2018-09-27T18:53:22.455Z,19.60
2018-09-27T18:55:50.532Z,19.50
2018-09-27T18:58:18.626Z,19.50
2018-09-27T19:00:46.731Z,19.40
2018-09-27T19:03:14.844Z,19.40
2018-09-27T19:05:42.922Z,19.30
2018-09-27T19:08:11.029Z,19.20
2018-09-27T19:10:39.106Z,19.10
2018-09-27T19:13:07.276Z,19.10
2018-09-27T19:15:35.360Z,19.00
2018-09-27T19:18:03.454Z,18.90
2018-09-27T19:20:31.616Z,18.80
2018-09-27T19:22:59.747Z,18.80
2018-09-27T19:25:28.071Z,18.70
2018-09-27T19:27:56.142Z,18.60
2018-09-27T19:30:24.222Z,18.50
2018-09-27T19:32:52.304Z,18.40
2018-09-27T19:35:20.376Z,18.40
2018-09-27T19:37:48.511Z,18.30
2018-09-27T19:40:16.578Z,18.20
2018-09-27T19:42:44.763Z,18.10
2018-09-27T19:45:12.856Z,18.10
2018-09-27T19:47:40.935Z,18.00
2018-09-27T19:50:09.030Z,17.90
2018-09-27T19:52:37.789Z,17.90
2018-09-27T19:55:05.863Z,17.80
2018-09-27T19:57:33.947Z,17.80
2018-09-27T20:00:02.069Z,17.60
2018-09-27T20:02:30.200Z,17.60
2018-09-27T20:04:58.275Z,17.50
2018-09-27T20:07:26.388Z,17.40
2018-09-27T20:09:54.489Z,17.40
2018-09-27T20:12:22.592Z,17.30
2018-09-27T20:14:50.667Z,17.30
2018-09-27T20:17:18.725Z,17.20
2018-09-27T20:19:46.810Z,17.20
2018-09-27T20:22:14.975Z,17.10
2018-09-27T20:24:42.974Z,17.10
2018-09-27T20:27:11.639Z,17.00
2018-09-27T20:29:39.918Z,16.90
2018-09-27T20:32:08.011Z,16.90
2018-09-27T20:34:36.117Z,16.90
2018-09-27T20:37:04.334Z,16.80
2018-09-27T20:39:32.539Z,16.70
2018-09-27T20:42:00.599Z,16.70
2018-09-27T20:44:28.768Z,16.70
2018-09-27T20:46:56.856Z,16.60
2018-09-27T20:49:24.975Z,16.60
2018-09-27T20:51:53.050Z,16.50
2018-09-27T20:54:21.138Z,16.50
2018-09-27T20:56:49.211Z,16.40
2018-09-27T20:59:17.343Z,16.40
2018-09-27T21:01:45.459Z,16.30
2018-09-27T21:04:13.532Z,16.30
2018-09-27T21:06:41.912Z,16.20
2018-09-27T21:09:11.827Z,16.20
2018-09-27T21:11:40.442Z,16.10
2018-09-27T21:14:08.682Z,16.10
2018-09-27T21:16:36.778Z,16.00
2018-09-27T21:19:04.912Z,16.00
2018-09-27T21:21:32.991Z,15.90
2018-09-27T21:24:01.041Z,15.90
2018-09-27T21:26:29.136Z,15.90
2018-09-27T21:28:57.199Z,15.80
2018-09-27T21:31:25.340Z,15.80
2018-09-27T21:33:53.435Z,15.70
2018-09-27T21:36:21.506Z,15.70
2018-09-27T21:38:49.582Z,15.60
2018-09-27T21:41:17.658Z,15.60
2018-09-27T21:43:45.730Z,15.50
2018-09-27T21:46:13.821Z,15.50
2018-09-27T21:48:41.886Z,15.50
2018-09-27T21:51:09.971Z,15.50
2018-09-27T21:53:38.136Z,15.40
2018-09-27T21:56:06.198Z,15.40
2018-09-27T21:58:34.278Z,15.30
2018-09-27T22:01:02.352Z,15.30
2018-09-27T22:03:30.437Z,15.30
2018-09-27T22:05:58.511Z,15.30
2018-09-27T22:08:26.566Z,15.20
2018-09-27T22:10:54.630Z,15.20
2018-09-27T22:13:22.702Z,15.20
2018-09-27T22:15:50.767Z,15.20
2018-09-27T22:18:18.838Z,15.10
2018-09-27T22:20:46.907Z,15.10
2018-09-27T22:23:14.988Z,15.10
2018-09-27T22:25:43.058Z,15.10
2018-09-27T22:28:11.122Z,15.10
2018-09-27T22:30:39.204Z,15.10
2018-09-27T22:33:07.274Z,15.10
2018-09-27T22:35:35.351Z,15.10
2018-09-27T22:38:03.799Z,15.10
2018-09-27T22:40:31.875Z,15.10
2018-09-27T22:42:59.970Z,15.00
2018-09-27T22:45:28.034Z,15.00
2018-09-27T22:47:56.099Z,15.00
2018-09-27T22:50:24.179Z,15.00
2018-09-27T22:52:52.280Z,15.00
2018-09-27T22:55:20.352Z,15.00
2018-09-27T22:57:48.420Z,15.00
2018-09-27T23:00:16.487Z,15.00
2018-09-27T23:02:44.617Z,15.00
2018-09-27T23:05:12.711Z,15.00
2018-09-27T23:07:40.783Z,14.90
2018-09-27T23:10:08.850Z,14.90
2018-09-27T23:12:36.926Z,14.90
2018-09-27T23:15:05.875Z,14.90
2018-09-27T23:17:33.971Z,14.90
2018-09-27T23:20:02.067Z,14.80
2018-09-27T23:22:30.122Z,14.80
2018-09-27T23:24:58.187Z,14.80
2018-09-27T23:27:26.268Z,14.80
2018-09-27T23:29:54.346Z,14.80
2018-09-27T23:32:22.422Z,14.80
2018-09-27T23:34:50.497Z,14.70
2018-09-27T23:37:18.556Z,14.80
2018-09-27T23:39:46.622Z,14.70
2018-09-27T23:42:14.702Z,14.70
2018-09-27T23:44:42.865Z,14.80
2018-09-27T23:47:10.918Z,14.90
2018-09-27T23:49:39.001Z,15.00
2018-09-27T23:52:07.074Z,15.00
2018-09-27T23:54:35.150Z,15.10
2018-09-27T23:57:03.238Z,15.10
2018-09-27T23:59:31.315Z,15.20
